createdAt,value
2018-01-23T00:01:57.614Z,12.33
2018-01-23T00:04:25.197Z,12.17
2018-01-23T00:06:52.667Z,13.40
2018-01-23T00:09:20.144Z,12.27
2018-01-23T00:11:48.370Z,9.20
2018-01-23T00:14:16.627Z,10.53
2018-01-23T00:16:44.113Z,10.63
2018-01-23T00:19:11.590Z,10.10
2018-01-23T00:21:39.103Z,10.80
2018-01-23T00:24:06.569Z,11.00
2018-01-23T00:26:34.251Z,9.70
2018-01-23T00:29:01.718Z,11.67
2018-01-23T00:31:29.178Z,10.80
2018-01-23T00:33:56.677Z,11.30
2018-01-23T00:36:24.932Z,12.33
2018-01-23T00:38:52.391Z,8.03
2018-01-23T00:41:19.856Z,10.00
2018-01-23T00:43:48.094Z,11.83
2018-01-23T00:46:15.576Z,9.80
2018-01-23T00:48:43.178Z,9.27
2018-01-23T00:51:10.629Z,8.90
2018-01-23T00:53:38.124Z,8.53
2018-01-23T00:56:05.723Z,9.43
2018-01-23T00:58:33.205Z,9.00
2018-01-23T01:01:00.675Z,8.87
2018-01-23T01:03:28.131Z,9.20
2018-01-23T01:05:55.591Z,9.40
2018-01-23T01:08:23.048Z,8.40
2018-01-23T01:10:50.521Z,7.97
2018-01-23T01:13:17.969Z,9.13
2018-01-23T01:15:45.496Z,7.57
2018-01-23T01:18:13.728Z,8.40
2018-01-23T01:20:41.181Z,8.33
2018-01-23T01:23:08.638Z,9.27
2018-01-23T01:25:36.118Z,7.80
2018-01-23T01:28:03.597Z,9.93
2018-01-23T01:30:32.865Z,7.20
2018-01-23T01:33:00.352Z,8.17
2018-01-23T01:35:27.830Z,7.50
2018-01-23T01:37:56.101Z,7.10
2018-01-23T01:40:24.326Z,8.93
2018-01-23T01:42:51.787Z,7.37
2018-01-23T01:45:19.249Z,6.20
2018-01-23T01:47:47.155Z,8.30
2018-01-23T01:50:14.614Z,7.13
2018-01-23T01:52:42.110Z,8.30
2018-01-23T01:55:09.578Z,7.80
2018-01-23T01:57:37.038Z,7.63
2018-01-23T02:00:04.502Z,6.70
2018-01-23T02:02:31.976Z,7.83
2018-01-23T02:04:59.440Z,7.87
2018-01-23T02:07:27.675Z,7.67
2018-01-23T02:09:55.142Z,8.03
2018-01-23T02:12:22.645Z,7.87
2018-01-23T02:14:50.116Z,7.27
2018-01-23T02:17:17.618Z,7.30
2018-01-23T02:19:45.093Z,9.53
2018-01-23T02:22:12.546Z,7.33
2018-01-23T02:24:40.019Z,7.60
2018-01-23T02:27:07.496Z,7.07
2018-01-23T02:29:34.978Z,7.40
2018-01-23T02:32:03.286Z,7.33
2018-01-23T02:34:30.763Z,7.27
2018-01-23T02:36:58.216Z,7.40
2018-01-23T02:39:25.689Z,6.63
2018-01-23T02:41:54.665Z,6.80
2018-01-23T02:44:22.150Z,6.30
2018-01-23T02:46:49.615Z,7.37
2018-01-23T02:49:17.098Z,6.77
2018-01-23T02:51:45.338Z,8.17
2018-01-23T02:54:12.813Z,7.97
2018-01-23T02:56:40.334Z,8.10
2018-01-23T02:59:07.829Z,7.87
2018-01-23T03:01:35.283Z,9.23
2018-01-23T03:04:02.976Z,7.73
2018-01-23T03:06:31.224Z,8.03
2018-01-23T03:08:58.693Z,7.97
2018-01-23T03:11:26.162Z,8.17
2018-01-23T03:13:54.406Z,8.10
2018-01-23T03:16:21.883Z,7.90
2018-01-23T03:18:49.507Z,8.17
2018-01-23T03:21:16.989Z,7.00
2018-01-23T03:23:44.438Z,7.20
2018-01-23T03:26:11.921Z,9.27
2018-01-23T03:28:39.364Z,8.53
2018-01-23T03:31:06.844Z,8.33
2018-01-23T03:33:34.314Z,9.47
2018-01-23T03:36:02.556Z,8.83
2018-01-23T03:38:30.018Z,7.63
2018-01-23T03:40:57.501Z,8.30
2018-01-23T03:43:25.773Z,8.80
2018-01-23T03:45:53.234Z,9.80
2018-01-23T03:48:21.486Z,9.37
2018-01-23T03:50:48.965Z,11.40
2018-01-23T03:53:16.434Z,12.20
2018-01-23T03:55:44.677Z,12.87
2018-01-23T03:58:12.145Z,11.73
2018-01-23T04:00:39.617Z,11.20
2018-01-23T04:03:07.915Z,12.23
2018-01-23T04:05:35.397Z,13.37
2018-01-23T04:08:02.873Z,13.57
2018-01-23T04:10:30.346Z,13.23
2018-01-23T04:12:57.858Z,14.90
2018-01-23T04:15:25.281Z,14.70
2018-01-23T04:17:53.106Z,15.50
2018-01-23T04:20:20.599Z,15.13
2018-01-23T04:22:48.066Z,15.43
2018-01-23T04:25:15.609Z,14.67
2018-01-23T04:27:43.287Z,14.93
2018-01-23T04:30:10.751Z,14.57
2018-01-23T04:32:39.014Z,14.97
2018-01-23T04:35:06.488Z,17.47
2018-01-23T04:37:34.751Z,14.37
2018-01-23T04:40:02.264Z,13.17
2018-01-23T04:42:29.739Z,16.53
2018-01-23T04:44:57.214Z,16.40
2018-01-23T04:47:24.770Z,13.63
2018-01-23T04:49:52.245Z,15.30
2018-01-23T04:52:19.770Z,16.67
2018-01-23T04:54:47.209Z,14.53
2018-01-23T04:57:14.721Z,15.47
2018-01-23T04:59:42.168Z,13.73
2018-01-23T05:02:09.643Z,16.13
2018-01-23T05:04:37.113Z,16.97
2018-01-23T05:07:05.345Z,13.07
2018-01-23T05:09:32.805Z,14.40
2018-01-23T05:12:00.269Z,15.63
2018-01-23T05:14:27.731Z,15.10
2018-01-23T05:16:55.202Z,12.83
2018-01-23T05:19:22.680Z,13.70
2018-01-23T05:21:50.933Z,11.60
2018-01-23T05:24:18.401Z,13.50
2018-01-23T05:26:45.901Z,12.10
2018-01-23T05:29:13.390Z,12.27
2018-01-23T05:31:40.867Z,12.30
2018-01-23T05:34:08.341Z,11.20
2018-01-23T05:36:35.792Z,12.90
2018-01-23T05:39:03.413Z,11.67
2018-01-23T05:41:31.022Z,11.17
2018-01-23T05:44:12.082Z,14.60
2018-01-23T05:46:39.560Z,12.57
2018-01-23T05:49:07.053Z,12.20
2018-01-23T05:51:34.513Z,11.23
2018-01-23T05:54:01.978Z,10.93
2018-01-23T05:56:29.459Z,12.97
2018-01-23T05:58:56.960Z,11.27
2018-01-23T06:01:25.215Z,9.63
2018-01-23T06:03:52.720Z,11.00
2018-01-23T06:06:20.214Z,11.03
2018-01-23T06:08:47.703Z,9.50
2018-01-23T06:11:15.990Z,10.80
2018-01-23T06:13:44.214Z,9.83
2018-01-23T06:16:11.698Z,9.80
2018-01-23T06:18:39.193Z,10.50
2018-01-23T06:21:06.695Z,9.30
2018-01-23T06:23:34.219Z,10.00
2018-01-23T06:26:01.683Z,8.97
2018-01-23T06:28:29.164Z,9.10
2018-01-23T06:30:56.643Z,10.90
2018-01-23T06:33:24.105Z,7.27
2018-01-23T06:35:51.632Z,7.97
2018-01-23T06:38:19.107Z,8.40
2018-01-23T06:40:46.598Z,11.67
2018-01-23T06:43:14.056Z,8.37
2018-01-23T06:45:41.586Z,7.33
2018-01-23T06:48:09.058Z,7.67
2018-01-23T06:50:36.544Z,10.00
2018-01-23T06:53:04.786Z,8.00
2018-01-23T06:55:32.241Z,7.30
2018-01-23T06:57:59.718Z,8.00
2018-01-23T07:00:27.196Z,7.70
2018-01-23T07:02:55.429Z,8.53
2018-01-23T07:05:22.885Z,8.40
2018-01-23T07:07:50.359Z,7.87
2018-01-23T07:10:17.822Z,6.90
2018-01-23T07:12:45.306Z,8.23
2018-01-23T07:15:13.533Z,9.07
2018-01-23T07:17:41.009Z,7.00
2018-01-23T07:20:08.490Z,7.27
2018-01-23T07:22:35.952Z,7.20
2018-01-23T07:25:03.446Z,7.30
2018-01-23T07:27:30.942Z,8.43
2018-01-23T07:29:58.406Z,7.90
2018-01-23T07:32:25.879Z,7.73
2018-01-23T07:34:53.353Z,7.03
2018-01-23T07:37:21.592Z,7.80
2018-01-23T07:39:49.063Z,8.10
2018-01-23T07:42:16.514Z,7.63
2018-01-23T07:44:44.007Z,8.27
2018-01-23T07:47:12.246Z,6.90
2018-01-23T07:49:39.738Z,7.13
2018-01-23T07:52:07.982Z,9.33
2018-01-23T07:54:35.462Z,10.03
2018-01-23T07:57:02.942Z,9.50
2018-01-23T07:59:31.206Z,9.40
2018-01-23T08:01:59.446Z,8.80
2018-01-23T08:04:26.894Z,10.90
2018-01-23T08:06:54.398Z,12.33
2018-01-23T08:09:21.859Z,8.23
2018-01-23T08:11:50.098Z,6.20
2018-01-23T08:14:17.563Z,7.30
2018-01-23T08:16:45.046Z,6.70
2018-01-23T08:19:13.659Z,7.17
2018-01-23T08:21:41.138Z,6.70
2018-01-23T08:24:08.597Z,7.27
2018-01-23T08:26:36.061Z,7.40
2018-01-23T08:29:03.554Z,7.20
2018-01-23T08:31:31.010Z,7.33
2018-01-23T08:33:58.479Z,8.20
2018-01-23T08:36:26.732Z,6.50
2018-01-23T08:38:54.196Z,5.67
2018-01-23T08:41:21.645Z,6.80
2018-01-23T08:43:49.134Z,8.27
2018-01-23T08:46:17.354Z,5.77
2018-01-23T08:48:44.836Z,6.83
2018-01-23T08:51:12.304Z,7.30
2018-01-23T08:53:39.803Z,7.47
2018-01-23T08:56:08.069Z,6.70
2018-01-23T08:58:36.304Z,6.63
2018-01-23T09:01:03.787Z,6.23
2018-01-23T09:03:31.274Z,5.70
2018-01-23T09:05:58.714Z,6.90
2018-01-23T09:08:26.946Z,6.17
2018-01-23T09:10:54.447Z,5.20
2018-01-23T09:13:21.929Z,5.60
2018-01-23T09:15:50.158Z,5.57
2018-01-23T09:18:17.629Z,5.30
2018-01-23T09:20:45.114Z,6.30
2018-01-23T09:23:13.327Z,4.93
2018-01-23T09:25:40.798Z,8.37
2018-01-23T09:28:08.258Z,4.90
2018-01-23T09:30:35.730Z,5.70
2018-01-23T09:33:03.201Z,6.03
2018-01-23T09:35:30.717Z,4.30
2018-01-23T09:37:58.189Z,3.90
2018-01-23T09:40:25.663Z,4.23
2018-01-23T09:42:53.136Z,5.47
2018-01-23T09:45:20.594Z,3.63
2018-01-23T09:47:48.107Z,4.60
2018-01-23T09:50:15.566Z,4.77
2018-01-23T09:52:43.036Z,4.73
2018-01-23T09:55:10.505Z,4.70
2018-01-23T09:57:37.978Z,3.43
2018-01-23T10:00:05.447Z,5.27
2018-01-23T10:02:32.904Z,4.90
2018-01-23T10:05:00.360Z,3.60
2018-01-23T10:07:27.814Z,4.53
2018-01-23T10:09:55.277Z,4.20
2018-01-23T10:12:22.725Z,4.37
2018-01-23T10:14:50.213Z,4.13
2018-01-23T10:17:18.450Z,4.37
2018-01-23T10:19:45.911Z,4.40
2018-01-23T10:22:14.144Z,5.07
2018-01-23T10:24:41.606Z,4.00
2018-01-23T10:27:09.095Z,4.90
2018-01-23T10:29:36.649Z,5.03
2018-01-23T10:32:04.134Z,6.63
2018-01-23T10:34:31.619Z,4.70
2018-01-23T10:36:59.854Z,3.90
2018-01-23T10:39:27.319Z,4.67
2018-01-23T10:41:54.785Z,5.00
2018-01-23T10:44:22.249Z,5.50
2018-01-23T10:46:49.714Z,5.00
2018-01-23T10:49:17.179Z,4.20
2018-01-23T10:51:45.601Z,3.90
2018-01-23T10:54:13.094Z,4.50
2018-01-23T10:56:40.546Z,3.83
2018-01-23T10:59:08.013Z,3.90
2018-01-23T11:01:41.431Z,4.27
2018-01-23T11:04:09.677Z,4.40
2018-01-23T11:06:37.134Z,7.90
2018-01-23T11:09:04.624Z,4.43
2018-01-23T11:11:32.094Z,6.20
2018-01-23T11:14:00.326Z,3.50
2018-01-23T11:16:27.782Z,4.27
2018-01-23T11:18:55.262Z,5.60
2018-01-23T11:21:22.716Z,4.00
2018-01-23T11:23:50.197Z,3.50
2018-01-23T11:26:17.665Z,3.13
2018-01-23T11:28:45.131Z,3.33
2018-01-23T11:31:12.615Z,4.07
2018-01-23T11:33:40.070Z,4.07
2018-01-23T11:36:07.541Z,3.30
2018-01-23T11:38:35.011Z,3.83
2018-01-23T11:41:02.493Z,3.83
2018-01-23T11:43:29.976Z,3.57
2018-01-23T11:45:57.425Z,3.50
2018-01-23T11:48:25.665Z,3.70
2018-01-23T11:50:53.134Z,3.40
2018-01-23T11:53:20.643Z,4.33
2018-01-23T11:55:48.111Z,4.07
2018-01-23T11:58:15.594Z,4.40
2018-01-23T12:00:43.063Z,3.83
2018-01-23T12:03:10.538Z,4.20
2018-01-23T12:05:38.041Z,3.50
2018-01-23T12:08:05.506Z,5.53
2018-01-23T12:10:32.966Z,4.43
2018-01-23T12:13:00.454Z,4.50
2018-01-23T12:15:27.908Z,4.17
2018-01-23T12:17:55.385Z,4.40
2018-01-23T12:20:22.884Z,6.13
2018-01-23T12:22:50.524Z,4.30
2018-01-23T12:25:18.754Z,4.40
2018-01-23T12:27:46.238Z,5.20
2018-01-23T12:30:13.715Z,3.97
2018-01-23T12:32:41.943Z,4.57
2018-01-23T12:35:09.407Z,4.90
2018-01-23T12:37:36.875Z,4.50
2018-01-23T12:40:04.380Z,4.10
2018-01-23T12:42:32.616Z,4.47
2018-01-23T12:45:00.117Z,4.07
2018-01-23T12:47:28.653Z,4.00
2018-01-23T12:49:56.106Z,4.30
2018-01-23T12:52:23.652Z,4.07
2018-01-23T12:54:51.112Z,4.23
2018-01-23T12:57:18.589Z,3.83
2018-01-23T12:59:46.054Z,3.87
2018-01-23T13:02:13.534Z,3.57
2018-01-23T13:04:41.773Z,3.67
2018-01-23T13:07:09.257Z,3.10
2018-01-23T13:09:36.726Z,2.30
2018-01-23T13:12:04.966Z,2.70
2018-01-23T13:14:32.668Z,2.60
2018-01-23T13:17:00.235Z,2.90
2018-01-23T13:19:28.498Z,2.50
2018-01-23T13:21:56.157Z,2.60
2018-01-23T13:24:24.429Z,2.40
2018-01-23T13:26:51.890Z,2.80
2018-01-23T13:29:19.365Z,2.03
2018-01-23T13:31:46.829Z,2.23
2018-01-23T13:34:15.067Z,2.40
2018-01-23T13:36:42.550Z,2.30
2018-01-23T13:39:10.019Z,3.00
2018-01-23T13:41:38.334Z,2.17
2018-01-23T13:44:06.551Z,2.17
2018-01-23T13:46:34.029Z,2.30
2018-01-23T13:49:01.482Z,3.10
2018-01-23T13:51:29.009Z,1.87
2018-01-23T13:53:56.467Z,2.60
2018-01-23T13:56:23.937Z,2.13
2018-01-23T13:58:51.412Z,2.90
2018-01-23T14:01:18.916Z,3.20
2018-01-23T14:03:46.380Z,2.50
2018-01-23T14:06:15.060Z,2.83
2018-01-23T14:08:43.951Z,1.63
2018-01-23T14:11:11.410Z,2.70
2018-01-23T14:13:38.871Z,3.17
2018-01-23T14:16:06.808Z,2.20
2018-01-23T14:18:35.042Z,3.00
2018-01-23T14:21:02.529Z,3.17
2018-01-23T14:23:30.015Z,2.40
2018-01-23T14:25:58.247Z,2.20
2018-01-23T14:28:25.714Z,3.00
2018-01-23T14:30:53.172Z,2.13
2018-01-23T14:33:20.703Z,2.93
2018-01-23T14:35:48.946Z,2.60
2018-01-23T14:38:16.449Z,3.60
2018-01-23T14:40:43.901Z,2.97
2018-01-23T14:43:11.365Z,3.23
2018-01-23T14:45:38.926Z,2.17
2018-01-23T14:48:06.409Z,3.10
2018-01-23T14:50:33.937Z,3.20
2018-01-23T14:53:01.459Z,2.97
2018-01-23T14:55:29.677Z,2.43
2018-01-23T14:57:57.234Z,2.40
2018-01-23T15:00:24.739Z,2.60
2018-01-23T15:02:52.962Z,2.10
2018-01-23T15:05:20.430Z,2.50
2018-01-23T15:07:47.898Z,2.87
2018-01-23T15:10:15.403Z,3.10
2018-01-23T15:12:43.623Z,2.30
2018-01-23T15:15:11.144Z,2.20
2018-01-23T15:17:39.368Z,2.40
2018-01-23T15:20:06.828Z,3.13
2018-01-23T15:22:34.281Z,2.67
2018-01-23T15:25:01.753Z,2.97
2018-01-23T15:27:29.221Z,2.30
2018-01-23T15:29:56.759Z,3.47
2018-01-23T15:32:24.239Z,2.53
2018-01-23T15:34:51.697Z,1.93
2018-01-23T15:37:19.188Z,1.90
2018-01-23T15:39:47.410Z,2.90
2018-01-23T15:42:14.883Z,2.30
2018-01-23T15:44:42.347Z,3.37
2018-01-23T15:47:09.838Z,3.47
2018-01-23T15:49:38.260Z,2.80
2018-01-23T15:52:05.738Z,3.27
2018-01-23T15:54:33.542Z,2.90
2018-01-23T15:57:01.769Z,4.33
2018-01-23T15:59:29.257Z,2.47
2018-01-23T16:01:56.760Z,2.73
2018-01-23T16:04:24.331Z,2.63
2018-01-23T16:06:51.843Z,3.23
2018-01-23T16:09:19.285Z,2.57
2018-01-23T16:11:46.772Z,2.60
2018-01-23T16:14:15.012Z,2.73
2018-01-23T16:16:42.524Z,3.30
2018-01-23T16:19:10.022Z,3.37
2018-01-23T16:21:37.489Z,2.53
2018-01-23T16:24:05.364Z,3.00
2018-01-23T16:26:32.853Z,2.60
2018-01-23T16:29:01.071Z,2.57
2018-01-23T16:31:28.563Z,3.07
2018-01-23T16:33:56.070Z,3.53
2018-01-23T16:36:23.541Z,2.90
2018-01-23T16:38:51.380Z,2.80
2018-01-23T16:41:19.619Z,2.10
2018-01-23T16:43:48.258Z,2.60
2018-01-23T16:46:15.717Z,2.60
2018-01-23T16:48:44.545Z,2.43
2018-01-23T16:51:12.202Z,2.50
2018-01-23T16:53:39.688Z,2.73
2018-01-23T16:56:07.168Z,2.90
2018-01-23T16:58:35.501Z,3.37
2018-01-23T17:01:02.968Z,3.00
2018-01-23T17:03:30.500Z,2.60
2018-01-23T17:05:57.961Z,2.83
2018-01-23T17:08:25.466Z,2.70
2018-01-23T17:10:53.747Z,3.10
2018-01-23T17:13:21.977Z,3.17
2018-01-23T17:15:49.435Z,2.17
2018-01-23T17:18:16.900Z,3.20
2018-01-23T17:20:44.350Z,3.33
2018-01-23T17:23:11.845Z,3.23
2018-01-23T17:25:39.301Z,3.30
2018-01-23T17:28:06.771Z,3.50
2018-01-23T17:30:35.101Z,3.10
2018-01-23T17:33:02.601Z,2.90
2018-01-23T17:35:30.065Z,2.83
2018-01-23T17:37:58.288Z,2.90
2018-01-23T17:40:25.797Z,2.90
2018-01-23T17:42:53.251Z,4.13
2018-01-23T17:45:20.758Z,3.30
2018-01-23T17:47:48.206Z,2.87
2018-01-23T17:50:15.695Z,3.50
2018-01-23T17:52:43.172Z,3.20
2018-01-23T17:55:10.643Z,2.97
2018-01-23T17:57:38.131Z,3.53
2018-01-23T18:00:05.605Z,3.80
2018-01-23T18:02:33.079Z,2.00
2018-01-23T18:05:00.550Z,3.40
2018-01-23T18:07:28.788Z,3.17
2018-01-23T18:09:56.242Z,3.20
2018-01-23T18:12:23.700Z,2.87
2018-01-23T18:14:51.171Z,3.40
2018-01-23T18:17:18.766Z,3.97
2018-01-23T18:19:46.223Z,4.30
2018-01-23T18:22:13.678Z,3.73
2018-01-23T18:24:41.245Z,3.20
2018-01-23T18:27:09.602Z,3.00
2018-01-23T18:29:37.104Z,3.90
2018-01-23T18:32:04.593Z,4.00
2018-01-23T18:34:32.051Z,2.80
2018-01-23T18:36:59.586Z,2.70
2018-01-23T18:39:27.827Z,3.17
2018-01-23T18:41:55.295Z,2.87
2018-01-23T18:44:22.771Z,2.27
2018-01-23T18:46:50.236Z,2.40
2018-01-23T18:49:17.714Z,2.87
2018-01-23T18:51:46.387Z,2.80
2018-01-23T18:54:14.532Z,2.80
2018-01-23T18:56:42.178Z,2.87
2018-01-23T18:59:09.765Z,1.90
2018-01-23T19:01:37.280Z,2.30
2018-01-23T19:04:04.761Z,2.60
2018-01-23T19:06:32.254Z,2.60
2018-01-23T19:08:59.711Z,2.20
2018-01-23T19:11:27.184Z,2.53
2018-01-23T19:13:54.937Z,2.03
2018-01-23T19:16:22.495Z,3.10
2018-01-23T19:18:51.334Z,2.53
2018-01-23T19:21:18.813Z,2.50
2018-01-23T19:23:46.570Z,2.00
2018-01-23T19:26:14.181Z,2.67
2018-01-23T19:28:42.698Z,2.67
2018-01-23T19:31:10.165Z,2.10
2018-01-23T19:33:37.756Z,2.00
2018-01-23T19:36:05.235Z,2.80
2018-01-23T19:38:32.756Z,2.43
2018-01-23T19:41:00.460Z,2.80
2018-01-23T19:43:28.223Z,2.30
2018-01-23T19:45:55.943Z,3.20
2018-01-23T19:48:24.120Z,2.93
2018-01-23T19:50:54.433Z,2.50
2018-01-23T19:53:22.154Z,2.93
2018-01-23T19:55:50.616Z,2.20
2018-01-23T19:58:19.219Z,2.37
2018-01-23T20:00:46.770Z,2.50
2018-01-23T20:03:14.241Z,2.67
2018-01-23T20:05:42.812Z,3.03
2018-01-23T20:08:10.410Z,3.30
2018-01-23T20:10:37.878Z,3.60
2018-01-23T20:13:05.338Z,3.47
2018-01-23T20:15:32.813Z,3.30
2018-01-23T20:18:01.425Z,3.57
2018-01-23T20:20:29.939Z,3.70
2018-01-23T20:22:57.690Z,5.97
2018-01-23T20:25:25.493Z,3.30
2018-01-23T20:27:53.226Z,4.53
2018-01-23T20:30:21.064Z,3.93
2018-01-23T20:32:49.396Z,4.50
2018-01-23T20:35:16.885Z,3.53
2018-01-23T20:37:44.379Z,4.10
2018-01-23T20:40:11.893Z,3.40
2018-01-23T20:42:39.376Z,3.50
2018-01-23T20:45:06.867Z,4.07
2018-01-23T20:47:35.114Z,3.20
2018-01-23T20:50:02.591Z,3.50
2018-01-23T20:52:30.073Z,3.43
2018-01-23T20:54:58.303Z,2.30
2018-01-23T20:57:25.783Z,2.87
2018-01-23T20:59:53.276Z,2.40
2018-01-23T21:02:21.500Z,2.67
2018-01-23T21:04:48.990Z,1.87
2018-01-23T21:07:17.381Z,1.90
2018-01-23T21:09:45.376Z,2.00
2018-01-23T21:12:12.875Z,1.80
2018-01-23T21:14:40.339Z,2.07
2018-01-23T21:17:07.797Z,2.90
2018-01-23T21:19:35.304Z,1.60
2018-01-23T21:22:03.745Z,1.67
2018-01-23T21:24:31.240Z,1.50
2018-01-23T21:26:58.693Z,1.57
2018-01-23T21:29:26.160Z,1.20
2018-01-23T21:31:53.657Z,1.37
2018-01-23T21:34:21.130Z,1.40
2018-01-23T21:36:48.627Z,1.33
2018-01-23T21:39:16.911Z,1.33
2018-01-23T21:41:44.411Z,2.03
2018-01-23T21:44:11.893Z,1.27
2018-01-23T21:46:40.132Z,1.23
2018-01-23T21:49:07.584Z,1.20
2018-01-23T21:51:35.083Z,2.80
2018-01-23T21:54:02.564Z,1.30
2018-01-23T21:56:30.794Z,1.23
2018-01-23T21:58:58.268Z,1.70
2018-01-23T22:01:25.739Z,1.53
2018-01-23T22:03:53.274Z,1.60
2018-01-23T22:06:20.746Z,1.50
2018-01-23T22:08:48.227Z,1.40
2018-01-23T22:11:16.451Z,1.50
2018-01-23T22:13:43.957Z,1.77
2018-01-23T22:16:11.430Z,1.73
2018-01-23T22:18:39.679Z,1.97
2018-01-23T22:21:07.320Z,1.40
2018-01-23T22:23:34.789Z,1.43
2018-01-23T22:26:02.298Z,1.40
2018-01-23T22:28:29.789Z,1.53
2018-01-23T22:30:57.274Z,1.73
2018-01-23T22:33:24.762Z,1.90
2018-01-23T22:35:52.986Z,1.40
2018-01-23T22:38:20.450Z,1.50
2018-01-23T22:40:47.906Z,1.63
2018-01-23T22:43:15.407Z,1.83
2018-01-23T22:45:42.928Z,1.70
2018-01-23T22:48:10.397Z,1.80
2018-01-23T22:50:37.865Z,1.53
2018-01-23T22:53:05.334Z,1.53
2018-01-23T22:55:33.621Z,1.50
2018-01-23T22:58:01.857Z,1.60
2018-01-23T23:00:29.334Z,1.10
2018-01-23T23:02:56.787Z,1.47
2018-01-23T23:05:24.245Z,1.40
2018-01-23T23:07:51.711Z,1.30
2018-01-23T23:10:19.198Z,1.20
2018-01-23T23:12:46.649Z,1.23
2018-01-23T23:15:14.865Z,1.43
2018-01-23T23:17:42.368Z,1.30
2018-01-23T23:20:09.813Z,1.07
2018-01-23T23:22:37.302Z,1.30
2018-01-23T23:25:05.537Z,1.30
2018-01-23T23:27:33.007Z,1.17
2018-01-23T23:30:01.231Z,1.30
2018-01-23T23:32:28.697Z,1.60
2018-01-23T23:34:56.221Z,1.60
2018-01-23T23:37:23.686Z,1.87
2018-01-23T23:39:51.910Z,1.70
2018-01-23T23:42:19.371Z,1.30
2018-01-23T23:44:46.840Z,1.30
2018-01-23T23:47:14.345Z,1.80
2018-01-23T23:49:42.576Z,1.90
2018-01-23T23:52:10.056Z,1.97
2018-01-23T23:54:37.514Z,2.23
2018-01-23T23:57:05.013Z,2.33
2018-01-23T23:59:32.485Z,1.50
